Meteo Giornale » Osservazioni meteo Sud Africa » Kruger Mpumalang
ore: 16:00 - Osservazioni Meteo Kruger Mpumalang
Lat. 25° 23' S Lon. 31° 6' E Alt. 862 metri s.l.m.
26 °C
Sereno
Temp. 24 Ore
15 °C
27 °C
Nord-Est
16.7 Km/h
Dew point 13 °C
Umidità 44 %
Visibilità 10 Km
Il sole sorge alle ore 06:07
Il sole tramonta alle ore 17:43
| Data e Ora | Cielo e Fenomeni | T °C | DP °C | Um. % | Pres. hPa | Vis. km | Vento km/h | |
|---|---|---|---|---|---|---|---|---|
| Oggi h: 16:00 | Sereno | 26 | 13 | 44 | 1024 | 10 | NE 16.7 | |
| Oggi h: 15:00 | Sereno | 27 | 13 | 42 | 1024 | 10 | NE 16.7 | |
| Oggi h: 14:00 | Sereno | 27 | 13 | 42 | 1025 | 10 | NE 13 | |
| Oggi h: 13:00 | Sereno | 26 | 12 | 41 | 1025 | 10 | NE 14.8 | |
| Oggi h: 12:00 | Sereno | 25 | 13 | 47 | 1027 | 10 | NE 11.1 | |
| Oggi h: 11:00 | Sereno | 24 | 13 | 50 | 1028 | 10 | N 5.5 | |
| Oggi h: 10:00 | Sereno | 22 | 12 | 53 | 1028 | 10 | NE 7.4 | |
| Oggi h: 09:00 | Sereno | 20 | 12 | 59 | 1028 | 10 | N 1.8 | |
| Oggi h: 08:00 | Sereno | 17 | 12 | 72 | 1028 | 10 | N 1.8 | |
| Oggi h: 07:00 | Sereno | 15 | 11 | 76 | 1027 | 10 | N 3.7 | |
| Oggi h: 05:00 | Sereno | 16 | 11 | 72 | 1026 | 10 | N 1.8 | |
| Oggi h: 04:00 | Sereno | 15 | 12 | 82 | 1026 | 10 | N 3.7 | |
| Oggi h: 03:00 | Sereno | 16 | 12 | 77 | 1026 | 10 | N 3.7 | |
| Oggi h: 02:00 | Sereno | 16 | 12 | 77 | 1026 | 10 | N 1.8 | |
| Oggi h: 01:00 | Sereno | 17 | 12 | 72 | 1026 | 0 | N 0 | |
| Oggi h: 00:00 | Sereno | 17 | 12 | 72 | 1026 | 0 | N 3.7 | |
| Ieri h: 23:00 | Sereno | 18 | 12 | 67 | 1026 | 0 | E/NE 7.4 | |
| Ieri h: 22:00 | Sereno | 18 | 12 | 67 | 1026 | 0 | NE 9.3 | |
| Ieri h: 21:00 | Sereno | 19 | 12 | 63 | 1026 | 0 | E/NE 13 | |
| Ieri h: 20:00 | Sereno | 20 | 12 | 59 | 1026 | 10 | NE 11.1 | |
| Ieri h: 19:00 | Sereno | 20 | 12 | 59 | 1025 | 10 | E/NE 11.1 | |
| Ieri h: 18:00 | Sereno | 22 | 12 | 53 | 1024 | 10 | E/NE 11.1 | |



